Time;durP1;ratioP1;P1;durP2;ratioP2;P2;SDS_P1;SDS_P2;PMS_P1;PMS_P2;Temp;Humidity;BMP_temperature;BMP_pressure;BME280_temperature;BME280_humidity;BME280_pressure;Samples;Min_cycle;Max_cycle;Signal;HPM_P1;HPM_P2
2022/05/01 00:00:27;;;;;;;18.88;12.63;;;;;;;10.46;77.96;101297.06;5062634;28;20024;-74
2022/05/01 00:02:54;;;;;;;19.52;13.90;;;;;;;10.44;78.07;101302.03;5072495;28;20031;-74
2022/05/01 00:05:19;;;;;;;20.05;11.82;;;;;;;10.42;77.59;101295.97;5108672;28;20081;-74
2022/05/01 00:07:45;;;;;;;19.42;13.18;;;;;;;10.40;77.38;101298.16;5061597;28;20035;-74
2022/05/01 00:10:10;;;;;;;18.35;12.13;;;;;;;10.39;76.62;101299.28;5067389;28;20583;-75
2022/05/01 00:12:36;;;;;;;16.38;11.50;;;;;;;10.39;76.08;101290.94;5079398;28;20078;-74
2022/05/01 00:15:02;;;;;;;17.42;11.57;;;;;;;10.41;76.34;101297.03;5109451;28;20026;-74
2022/05/01 00:17:28;;;;;;;16.13;11.02;;;;;;;10.40;75.22;101287.06;5107397;28;20032;-75
2022/05/01 00:19:55;;;;;;;17.13;10.55;;;;;;;10.40;74.94;101287.06;5059003;28;20020;-74
2022/05/01 00:22:21;;;;;;;16.48;10.65;;;;;;;10.39;73.97;101287.31;5079629;28;20035;-75
2022/05/01 00:24:46;;;;;;;17.15;10.55;;;;;;;10.41;73.60;101288.72;5062643;28;20032;-74
2022/05/01 00:27:12;;;;;;;17.33;10.93;;;;;;;10.40;74.21;101284.28;5083642;28;20020;-74
2022/05/01 00:29:38;;;;;;;15.50;11.13;;;;;;;10.37;74.16;101284.81;5092523;28;20024;-74
2022/05/01 00:32:05;;;;;;;15.07;10.90;;;;;;;10.35;74.68;101283.44;5096585;28;20038;-74
2022/05/01 00:37:14;;;;;;;15.48;10.25;;;;;;;10.32;74.82;101275.66;5073702;28;20118;-74
2022/05/01 00:39:40;;;;;;;14.40;10.38;;;;;;;10.29;74.51;101283.41;5097075;28;20438;-74
2022/05/01 00:42:06;;;;;;;14.80;9.90;;;;;;;10.25;73.98;101278.63;5078966;28;20035;-74
2022/05/01 00:44:31;;;;;;;14.23;10.02;;;;;;;10.20;74.16;101279.47;5096857;28;20034;-74
2022/05/01 00:46:59;;;;;;;12.68;9.90;;;;;;;10.22;72.87;101273.63;5078910;28;20028;-74
2022/05/01 00:49:27;;;;;;;14.95;10.23;;;;;;;10.13;73.12;101276.09;5062343;28;20035;-74
2022/05/01 00:51:58;;;;;;;15.15;10.38;;;;;;;10.16;73.10;101280.28;5072766;28;20028;-74
2022/05/01 00:54:25;;;;;;;12.65;9.52;;;;;;;10.08;72.75;101276.09;5046040;28;20032;-74
2022/05/01 00:56:52;;;;;;;13.75;9.30;;;;;;;10.10;72.74;101278.59;5110000;28;20515;-74
2022/05/01 00:59:18;;;;;;;14.48;9.57;;;;;;;10.09;73.52;101279.72;5117146;28;20027;-74
2022/05/01 01:01:44;;;;;;;12.45;9.82;;;;;;;10.05;74.07;101280.25;5084902;28;20435;-74
2022/05/01 01:04:10;;;;;;;13.05;9.55;;;;;;;10.04;73.85;101269.44;5116823;28;20027;-74
2022/05/01 01:06:38;;;;;;;16.58;11.07;;;;;;;9.98;75.07;101273.28;5114452;27;20056;-74
2022/05/01 01:09:04;;;;;;;13.85;10.40;;;;;;;9.97;73.52;101278.00;5077722;28;20035;-74
2022/05/01 01:11:29;;;;;;;14.90;10.73;;;;;;;9.96;75.27;101273.56;5078399;28;20028;-74
2022/05/01 01:13:55;;;;;;;14.23;10.20;;;;;;;9.94;74.41;101278.53;5065733;28;20031;-74
2022/05/01 01:16:21;;;;;;;14.70;10.38;;;;;;;9.91;75.23;101272.69;5078907;28;20488;-74
2022/05/01 01:18:47;;;;;;;13.10;9.50;;;;;;;9.92;73.75;101272.44;5090699;28;20024;-74
2022/05/01 01:21:12;;;;;;;15.30;10.63;;;;;;;9.94;73.96;101272.16;5102246;28;20610;-74
2022/05/01 01:23:39;;;;;;;15.55;10.13;;;;;;;9.91;74.19;101279.06;5061748;28;20059;-74
2022/05/01 01:26:05;;;;;;;16.08;10.57;;;;;;;9.90;74.83;101269.09;5092872;28;20030;-75
2022/05/01 01:28:35;;;;;;;12.95;9.63;;;;;;;9.91;73.96;101273.53;5102600;28;20058;-75
2022/05/01 01:33:47;;;;;;;14.68;9.52;;;;;;;9.92;73.88;101275.22;5069651;28;20430;-75
2022/05/01 01:36:12;;;;;;;13.52;10.00;;;;;;;9.89;73.92;101275.75;5080439;28;20396;-75
2022/05/01 01:38:39;;;;;;;12.10;9.07;;;;;;;9.90;74.44;101277.41;5058855;28;20024;-75
2022/05/01 01:41:09;;;;;;;13.35;10.10;;;;;;;9.89;73.80;101274.91;5079027;28;20031;-75
2022/05/01 01:43:35;;;;;;;13.80;10.13;;;;;;;9.91;73.67;101276.31;5100320;28;20028;-75
2022/05/01 01:46:00;;;;;;;14.95;9.75;;;;;;;9.90;73.68;101277.41;5082103;28;20028;-75
2022/05/01 01:48:26;;;;;;;13.52;9.32;;;;;;;9.91;73.72;101279.06;5103032;28;20029;-75
2022/05/01 01:50:56;;;;;;;13.48;9.75;;;;;;;9.90;75.15;101280.19;5082001;28;20035;-75
2022/05/01 01:53:21;;;;;;;15.20;10.82;;;;;;;9.89;74.89;101275.75;5082189;28;20059;-75
2022/05/01 01:55:47;;;;;;;14.77;10.20;;;;;;;9.92;74.90;101279.91;5081818;28;20051;-75
2022/05/01 01:58:12;;;;;;;10.85;8.55;;;;;;;9.90;73.82;101271.88;5081928;28;20036;-75
2022/05/01 02:00:38;;;;;;;15.75;10.25;;;;;;;9.90;74.10;101274.63;5081598;28;20484;-75
2022/05/01 02:03:04;;;;;;;13.05;9.77;;;;;;;9.86;73.66;101276.28;5091787;28;20027;-75
2022/05/01 02:05:30;;;;;;;13.38;9.05;;;;;;;9.85;73.36;101280.16;5065120;28;20063;-75
2022/05/01 02:07:56;;;;;;;11.00;8.90;;;;;;;9.87;73.90;101272.41;5096561;28;20034;-75
2022/05/01 02:10:21;;;;;;;12.75;9.07;;;;;;;9.86;73.37;101270.72;5084700;28;20040;-75
2022/05/01 02:12:47;;;;;;;12.57;9.10;;;;;;;9.89;73.46;101272.13;5102224;28;20054;-75
2022/05/01 02:15:12;;;;;;;12.15;9.07;;;;;;;9.86;74.11;101270.72;5079741;28;20024;-75
2022/05/01 02:17:39;;;;;;;14.30;9.30;;;;;;;9.85;73.87;101263.53;5081538;28;20031;-75
2022/05/01 02:20:05;;;;;;;12.88;9.15;;;;;;;9.84;73.79;101259.91;5113362;28;20032;-75
2022/05/01 02:22:31;;;;;;;11.60;8.82;;;;;;;9.81;73.49;101257.69;5081515;28;20408;-75
2022/05/01 02:24:56;;;;;;;12.95;9.27;;;;;;;9.81;73.82;101260.47;5086507;28;20046;-74
2022/05/01 02:27:22;;;;;;;10.93;8.40;;;;;;;9.79;73.72;101261.84;5110021;28;20383;-74
2022/05/01 02:29:47;;;;;;;13.23;9.27;;;;;;;9.77;73.91;101258.50;5113427;28;20024;-74
2022/05/01 02:32:13;;;;;;;13.63;9.25;;;;;;;9.73;73.62;101258.19;5099114;28;20032;-74
2022/05/01 02:34:39;;;;;;;13.63;8.57;;;;;;;9.72;73.98;101264.00;5086227;28;20404;-75
2022/05/01 02:37:06;;;;;;;11.90;8.88;;;;;;;9.71;74.17;101254.03;5081227;28;20052;-75
2022/05/01 02:39:33;;;;;;;11.95;9.18;;;;;;;9.68;74.37;101251.78;5099228;28;20032;-75
2022/05/01 02:41:58;;;;;;;13.23;9.27;;;;;;;9.63;74.28;101252.59;5064723;28;20074;-74
2022/05/01 02:44:24;;;;;;;11.48;8.85;;;;;;;9.63;74.25;101256.19;5087889;28;20032;-74
2022/05/01 02:46:49;;;;;;;12.15;9.02;;;;;;;9.60;74.19;101259.50;5098882;28;20110;-74
2022/05/01 02:49:15;;;;;;;12.85;9.20;;;;;;;9.60;74.19;101255.91;5080805;28;20036;-74
2022/05/01 02:51:40;;;;;;;13.68;9.30;;;;;;;9.57;74.52;101257.28;5099203;28;20036;-75
2022/05/01 02:54:06;;;;;;;15.23;9.50;;;;;;;9.57;74.92;101251.72;5098934;28;20089;-74
2022/05/01 02:56:32;;;;;;;12.38;8.98;;;;;;;9.54;74.88;101255.03;5098893;28;20049;-74
2022/05/01 02:58:57;;;;;;;14.90;8.77;;;;;;;9.53;74.95;101253.38;5069830;28;20468;-74
2022/05/01 03:01:23;;;;;;;11.27;8.80;;;;;;;9.54;74.76;101251.44;5089948;28;20089;-75
2022/05/01 03:03:49;;;;;;;15.20;9.10;;;;;;;9.50;74.79;101256.69;5098047;28;20035;-75
2022/05/01 03:06:14;;;;;;;13.70;9.00;;;;;;;9.51;75.67;101249.22;5090241;28;20020;-74
2022/05/01 03:08:40;;;;;;;12.48;8.98;;;;;;;9.51;74.57;101252.81;5077692;28;20058;-75
2022/05/01 03:11:05;;;;;;;15.63;8.80;;;;;;;9.48;74.54;101244.22;5071162;28;20036;-75
2022/05/01 03:13:31;;;;;;;13.35;9.43;;;;;;;9.46;74.53;101244.47;5077370;28;20024;-74
2022/05/01 03:15:56;;;;;;;11.68;8.70;;;;;;;9.47;75.44;101251.69;5082698;28;20082;-74
2022/05/01 03:23:50;;;;;;;11.88;8.68;;;;;;;9.44;75.65;101245.84;5117036;27;20049;-74
2022/05/01 03:26:19;;;;;;;13.10;8.35;;;;;;;9.43;75.65;101256.09;5104380;28;20028;-74
2022/05/01 03:28:47;;;;;;;12.80;8.32;;;;;;;9.40;75.40;101242.78;5105890;28;20042;-74
2022/05/01 03:31:13;;;;;;;13.02;8.63;;;;;;;9.40;75.65;101253.88;5085253;28;20028;-74
2022/05/01 03:33:38;;;;;;;12.60;8.05;;;;;;;9.40;75.25;101245.53;5098328;28;20047;-74
2022/05/01 03:36:06;;;;;;;11.05;7.72;;;;;;;9.40;74.61;101246.38;5085745;28;20031;-74
2022/05/01 03:38:34;;;;;;;9.13;7.60;;;;;;;9.42;74.68;101245.25;5092567;28;20392;-74
2022/05/01 03:41:00;;;;;;;12.10;7.85;;;;;;;9.40;74.60;101245.53;5075035;28;20055;-74
2022/05/01 03:43:25;;;;;;;11.00;8.45;;;;;;;9.39;74.78;101249.44;5080389;28;20038;-74
2022/05/01 03:45:51;;;;;;;11.85;8.55;;;;;;;9.38;74.82;101242.19;5097765;28;20028;-74
2022/05/01 03:48:16;;;;;;;15.52;8.88;;;;;;;9.32;75.29;101246.06;5079845;28;20385;-74
2022/05/01 03:50:42;;;;;;;12.25;8.18;;;;;;;9.31;74.91;101236.91;5097784;28;20028;-75
2022/05/01 03:53:07;;;;;;;13.35;8.02;;;;;;;9.29;75.17;101238.28;5097938;28;20024;-75
2022/05/01 03:55:33;;;;;;;10.90;8.13;;;;;;;9.29;75.50;101233.56;5110640;27;20077;-74
2022/05/01 03:58:00;;;;;;;11.50;8.38;;;;;;;9.29;75.28;101241.03;5109021;28;20036;-75
2022/05/01 04:00:27;;;;;;;11.93;7.80;;;;;;;9.28;74.99;101231.06;5078992;28;20576;-75
2022/05/01 04:02:53;;;;;;;14.35;8.90;;;;;;;9.23;74.70;101229.09;5107274;28;20019;-74
2022/05/01 04:05:18;;;;;;;10.73;8.15;;;;;;;9.26;74.80;101227.72;5114908;28;20028;-74
2022/05/01 04:07:44;;;;;;;12.02;8.15;;;;;;;9.26;75.07;101224.94;5078710;28;20032;-74
2022/05/01 04:10:10;;;;;;;11.52;8.23;;;;;;;9.24;74.53;101224.38;5092930;28;20040;-74
2022/05/01 04:12:42;;;;;;;11.13;7.57;;;;;;;9.27;74.23;101227.44;5086063;28;20028;-75
2022/05/01 04:15:08;;;;;;;12.68;7.55;;;;;;;9.24;73.87;101221.59;5097428;28;20047;-75
2022/05/01 04:17:39;;;;;;;11.43;7.80;;;;;;;9.25;73.87;101220.50;5089978;28;20032;-74
2022/05/01 04:20:15;;;;;;;11.60;7.88;;;;;;;9.25;74.40;101221.34;5083184;28;20020;-75
2022/05/01 04:22:47;;;;;;;12.05;7.75;;;;;;;9.25;74.23;101224.13;5086264;28;20031;-74
2022/05/01 04:25:17;;;;;;;10.65;7.55;;;;;;;9.27;73.79;101218.28;5104628;28;20445;-74
2022/05/01 04:27:47;;;;;;;11.38;7.47;;;;;;;9.27;74.28;101223.84;5104841;28;20020;-74
2022/05/01 04:30:14;;;;;;;11.02;7.32;;;;;;;9.25;73.87;101223.25;5110468;28;20115;-74
2022/05/01 04:32:58;;;;;;;12.48;8.13;;;;;;;9.24;74.07;101218.84;5079145;28;20441;-74
2022/05/01 04:35:34;;;;;;;11.07;7.97;;;;;;;9.21;73.92;101216.59;5111592;28;20074;-74
2022/05/01 04:38:04;;;;;;;10.57;7.50;;;;;;;9.20;74.48;101226.84;5099659;28;20055;-74
2022/05/01 04:40:35;;;;;;;11.57;8.07;;;;;;;9.21;74.53;101220.19;5079160;28;20059;-74
2022/05/01 04:43:01;;;;;;;10.75;7.78;;;;;;;9.22;74.26;101227.44;5097027;28;20036;-74
2022/05/01 04:45:28;;;;;;;10.93;7.57;;;;;;;9.18;74.04;101216.03;5096614;28;20032;-74
2022/05/01 04:47:54;;;;;;;12.35;7.97;;;;;;;9.20;74.38;101218.53;5062279;28;20038;-74
2022/05/01 04:50:19;;;;;;;10.68;6.88;;;;;;;9.20;73.84;101212.16;5096831;28;20035;-74
2022/05/01 04:52:45;;;;;;;11.30;7.35;;;;;;;9.17;73.36;101219.91;5107757;28;20027;-74
2022/05/01 04:55:10;;;;;;;12.68;7.63;;;;;;;9.13;73.75;101224.31;5085871;28;20051;-74
2022/05/01 04:57:38;;;;;;;9.82;7.47;;;;;;;9.11;73.76;101220.13;5078624;28;20038;-74
2022/05/01 05:00:05;;;;;;;10.57;7.38;;;;;;;9.07;73.78;101214.28;5071463;28;20377;-74
2022/05/01 05:02:38;;;;;;;10.48;7.22;;;;;;;9.04;73.74;101212.06;5085486;28;20031;-74
2022/05/01 05:05:05;;;;;;;10.48;7.47;;;;;;;9.05;73.90;101227.56;5115796;27;20027;-75
2022/05/01 05:07:31;;;;;;;10.85;7.65;;;;;;;9.07;73.60;101214.28;5098509;28;20032;-74
2022/05/01 05:09:57;;;;;;;10.32;7.65;;;;;;;9.02;73.92;101221.72;5096559;28;20032;-74
2022/05/01 05:12:22;;;;;;;12.82;8.02;;;;;;;9.00;73.98;101219.25;5095722;28;20531;-74
2022/05/01 05:14:51;;;;;;;11.10;7.10;;;;;;;9.04;74.16;101220.38;5109935;28;20119;-74
2022/05/01 05:17:19;;;;;;;12.65;7.70;;;;;;;8.99;74.43;101220.31;5096067;28;20035;-75
2022/05/01 05:19:48;;;;;;;10.55;8.30;;;;;;;8.98;75.93;101215.91;5096376;28;20032;-74
2022/05/01 05:22:14;;;;;;;11.23;7.80;;;;;;;8.94;75.66;101212.84;5097856;28;20032;-75
2022/05/01 05:24:39;;;;;;;11.43;8.15;;;;;;;8.99;75.64;101216.72;5081534;28;20034;-75
2022/05/01 05:27:05;;;;;;;10.38;7.80;;;;;;;9.06;75.69;101214.56;5109284;28;20032;-74
2022/05/01 05:29:30;;;;;;;14.25;9.40;;;;;;;9.10;77.50;101222.06;5110962;28;20034;-74
2022/05/01 05:31:56;;;;;;;15.20;9.82;;;;;;;9.17;78.88;101219.09;5110906;28;20038;-75
2022/05/01 05:34:21;;;;;;;17.58;9.18;;;;;;;9.29;78.77;101227.19;5089721;28;20035;-74
2022/05/01 05:36:47;;;;;;;13.25;8.98;;;;;;;9.44;77.41;101220.88;5090855;28;20028;-75
2022/05/01 05:39:13;;;;;;;12.75;8.90;;;;;;;9.56;77.14;101219.56;5073129;28;20024;-74
2022/05/01 05:41:39;;;;;;;14.82;7.70;;;;;;;9.73;75.14;101224.09;5108952;28;20433;-75
2022/05/01 05:44:04;;;;;;;10.73;7.10;;;;;;;9.91;75.02;101222.75;5105877;28;20124;-75
2022/05/01 05:46:30;;;;;;;13.93;8.50;;;;;;;10.07;74.59;101216.97;5108744;28;20036;-75
2022/05/01 05:48:56;;;;;;;10.77;8.63;;;;;;;10.26;73.70;101224.81;5111139;28;20031;-75
2022/05/01 05:51:21;;;;;;;13.95;9.25;;;;;;;10.44;73.79;101218.72;5096006;28;20383;-75
2022/05/01 05:53:49;;;;;;;11.25;7.30;;;;;;;10.63;72.69;101220.97;5077905;28;20035;-75
2022/05/01 05:56:15;;;;;;;10.45;7.68;;;;;;;10.81;71.99;101220.44;5077836;28;20040;-75
2022/05/01 05:58:40;;;;;;;11.73;8.00;;;;;;;10.98;71.74;101224.84;5057197;28;20036;-75
2022/05/01 06:01:06;;;;;;;9.02;7.15;;;;;;;11.16;71.03;101227.06;5064399;28;20023;-75
2022/05/01 06:03:31;;;;;;;12.23;8.02;;;;;;;11.34;70.29;101222.88;5080047;28;20019;-75
2022/05/01 06:05:57;;;;;;;10.55;7.38;;;;;;;11.53;70.23;101221.16;5078072;28;20146;-75
2022/05/01 06:08:22;;;;;;;11.70;7.28;;;;;;;11.71;69.53;101221.63;5100058;28;20035;-75
2022/05/01 06:10:48;;;;;;;10.52;6.20;;;;;;;11.90;68.91;101222.69;5080534;28;20032;-75
2022/05/01 06:13:13;;;;;;;9.95;6.45;;;;;;;12.08;68.30;101218.41;5109569;28;20031;-75
2022/05/01 06:15:39;;;;;;;12.65;6.32;;;;;;;12.28;67.65;101220.25;5077596;28;20481;-75
2022/05/01 06:18:04;;;;;;;9.93;6.32;;;;;;;12.49;66.72;101215.38;5095855;28;20032;-75
2022/05/01 06:20:30;;;;;;;9.00;6.90;;;;;;;12.69;66.17;101225.53;5095738;28;20039;-75
2022/05/01 06:22:56;;;;;;;11.50;6.38;;;;;;;12.87;65.44;101221.19;5095303;28;20032;-76
2022/05/01 06:25:22;;;;;;;9.88;6.40;;;;;;;13.05;64.19;101222.44;5081496;28;20036;-76
2022/05/01 06:27:47;;;;;;;9.70;5.85;;;;;;;13.23;64.14;101227.25;5067834;28;20400;-75
2022/05/01 06:30:13;;;;;;;9.07;5.85;;;;;;;13.38;63.76;101231.91;5112575;28;20028;-76
2022/05/01 06:32:39;;;;;;;8.35;5.60;;;;;;;13.51;62.81;101224.75;5064796;28;20431;-76
2022/05/01 06:35:05;;;;;;;7.32;5.20;;;;;;;13.64;62.50;101226.84;5110917;28;20158;-76
2022/05/01 06:37:30;;;;;;;10.18;7.20;;;;;;;13.72;62.04;101220.59;5098002;27;20038;-76
2022/05/01 06:39:55;;;;;;;11.02;7.43;;;;;;;13.77;61.89;101222.53;5084828;28;20024;-70
2022/05/01 06:42:21;;;;;;;7.43;6.07;;;;;;;13.90;61.12;101223.72;5106331;28;20035;-70
2022/05/01 06:44:46;;;;;;;9.65;7.13;;;;;;;14.01;60.69;101231.69;5077360;28;20036;-70
2022/05/01 06:47:13;;;;;;;8.63;5.80;;;;;;;14.15;60.76;101216.97;5094367;28;20080;-70
2022/05/01 06:49:38;;;;;;;8.27;6.50;;;;;;;14.27;59.22;101215.41;5099015;28;20469;-71
2022/05/01 06:52:04;;;;;;;8.93;6.63;;;;;;;14.40;59.04;101219.41;5099178;28;20111;-70
2022/05/01 06:54:30;;;;;;;8.85;6.53;;;;;;;14.51;57.52;101217.28;5080886;28;20057;-70
2022/05/01 06:56:55;;;;;;;8.30;6.40;;;;;;;14.65;57.32;101211.78;5074211;28;20052;-70
2022/05/01 06:59:21;;;;;;;9.50;6.60;;;;;;;14.73;56.69;101219.47;5096758;28;20495;-70
2022/05/01 07:01:47;;;;;;;9.10;6.35;;;;;;;14.82;56.27;101216.81;5075456;28;20082;-71
2022/05/01 07:04:13;;;;;;;10.65;6.30;;;;;;;14.91;55.88;101221.41;5057052;28;20020;-71
2022/05/01 07:06:40;;;;;;;8.15;5.72;;;;;;;15.00;55.25;101215.13;5061329;28;20061;-71
2022/05/01 07:09:05;;;;;;;12.10;6.97;;;;;;;15.08;54.75;101217.22;5092952;28;20035;-70
2022/05/01 07:11:31;;;;;;;8.55;5.47;;;;;;;15.19;55.48;101221.47;5063882;28;20024;-70
2022/05/01 07:13:57;;;;;;;7.47;5.60;;;;;;;15.27;55.79;101220.78;5031127;28;20028;-70
2022/05/01 07:16:22;;;;;;;6.53;4.85;;;;;;;15.37;55.88;101219.72;5076797;28;20031;-70
2022/05/01 07:18:48;;;;;;;6.88;4.78;;;;;;;15.48;56.26;101223.16;5080538;28;20412;-70
2022/05/01 07:21:13;;;;;;;7.07;4.57;;;;;;;15.57;56.26;101213.75;5075511;28;20054;-71
2022/05/01 07:23:39;;;;;;;6.30;4.68;;;;;;;15.69;55.61;101220.84;5068137;28;20024;-70
2022/05/01 07:26:04;;;;;;;7.85;4.32;;;;;;;15.82;55.90;101218.03;5060144;28;20039;-71
2022/05/01 07:28:30;;;;;;;8.80;5.68;;;;;;;15.93;54.81;101215.00;5086800;28;20028;-71
2022/05/01 07:30:55;;;;;;;8.23;6.50;;;;;;;16.05;52.97;101220.91;5106081;28;20028;-71
2022/05/01 07:33:22;;;;;;;9.00;5.75;;;;;;;16.17;52.87;101217.56;5098346;28;20408;-70
2022/05/01 07:35:47;;;;;;;5.47;4.50;;;;;;;16.30;53.89;101225.09;5097083;28;20087;-70
2022/05/01 07:38:13;;;;;;;10.52;6.28;;;;;;;16.38;53.40;101212.28;5077821;28;20472;-71
2022/05/01 07:40:39;;;;;;;7.78;5.45;;;;;;;16.46;52.79;101217.16;5046828;27;20019;-71
2022/05/01 07:43:05;;;;;;;7.63;6.25;;;;;;;16.56;52.39;101210.50;5095143;28;20035;-71
2022/05/01 07:45:30;;;;;;;8.55;5.78;;;;;;;16.65;51.45;101217.81;5055953;28;20032;-69
2022/05/01 07:47:58;;;;;;;10.18;5.78;;;;;;;16.74;52.31;101210.31;5093903;28;20617;-70
2022/05/01 07:50:24;;;;;;;8.68;5.93;;;;;;;16.88;51.75;101215.88;5063588;28;20036;-74
2022/05/01 07:52:49;;;;;;;11.55;6.15;;;;;;;16.98;50.91;101206.34;5046228;28;20173;-75
2022/05/01 07:55:15;;;;;;;6.93;4.97;;;;;;;17.14;52.04;101198.38;5059485;28;20040;-75
2022/05/01 07:57:41;;;;;;;8.93;4.82;;;;;;;17.30;50.83;101205.22;5090131;28;20106;-75
2022/05/01 08:00:07;;;;;;;6.65;5.38;;;;;;;17.46;50.80;101194.38;5111194;28;20031;-75
2022/05/01 08:02:35;;;;;;;7.07;4.57;;;;;;;17.63;51.72;101188.84;5086020;28;20031;-75
2022/05/01 08:05:00;;;;;;;7.57;4.60;;;;;;;17.81;50.29;101194.53;5118044;28;20069;-75
2022/05/01 08:07:26;;;;;;;8.00;4.80;;;;;;;18.00;49.41;101195.09;5079645;28;20028;-75
2022/05/01 08:09:52;;;;;;;6.63;4.30;;;;;;;18.22;48.34;101193.28;5111040;28;20031;-75
2022/05/01 08:12:17;;;;;;;7.80;5.03;;;;;;;18.30;46.91;101198.94;5079434;28;20036;-75
2022/05/01 08:14:44;;;;;;;10.63;4.60;;;;;;;18.41;46.83;101196.59;5097570;28;20641;-75
2022/05/01 08:17:09;;;;;;;8.93;4.70;;;;;;;18.57;47.33;101188.50;5078910;28;20392;-75
2022/05/01 08:22:19;;;;;;;8.10;5.20;;;;;;;18.65;44.66;101200.91;5085680;28;20024;-75
2022/05/01 08:24:45;;;;;;;8.80;4.97;;;;;;;18.77;44.95;101192.63;5079054;28;20024;-75
2022/05/01 08:27:10;;;;;;;8.48;5.00;;;;;;;18.90;44.37;101197.25;5100833;28;20050;-75
2022/05/01 08:29:39;;;;;;;8.63;4.97;;;;;;;19.00;44.29;101198.91;5110989;28;20032;-75
2022/05/01 08:32:05;;;;;;;6.07;4.82;;;;;;;19.09;43.90;101194.06;5096957;28;20028;-75
2022/05/01 08:34:31;;;;;;;8.27;4.22;;;;;;;19.25;44.12;101197.19;5085985;28;20149;-75
2022/05/01 08:36:56;;;;;;;7.57;4.53;;;;;;;19.20;42.55;101197.38;5099387;28;20028;-75
2022/05/01 08:39:22;;;;;;;7.43;4.80;;;;;;;19.33;42.52;101198.31;5101669;28;20055;-75
2022/05/01 08:41:47;;;;;;;6.40;3.83;;;;;;;19.48;43.53;101194.94;5078554;28;20048;-75
2022/05/01 08:44:14;;;;;;;8.93;4.50;;;;;;;19.44;42.25;101193.94;5078834;28;20028;-75
2022/05/01 08:46:48;;;;;;;7.38;4.22;;;;;;;19.46;41.62;101202.06;5096769;28;20081;-75
2022/05/01 08:49:17;;;;;;;7.78;4.30;;;;;;;19.46;41.45;101194.44;5078662;28;20111;-75
2022/05/01 08:51:43;;;;;;;10.77;5.28;;;;;;;19.41;41.16;101195.44;5069911;28;20468;-75
2022/05/01 08:54:12;;;;;;;9.55;4.70;;;;;;;19.47;41.29;101198.09;5079560;28;20055;-75
2022/05/01 08:56:41;;;;;;;9.02;4.18;;;;;;;19.51;41.52;101190.63;5078635;28;20048;-75
2022/05/01 08:59:09;;;;;;;11.80;5.18;;;;;;;19.56;40.86;101198.91;5087357;28;20032;-75
2022/05/01 09:01:35;;;;;;;8.63;3.78;;;;;;;19.70;41.99;101207.97;5096338;28;20027;-75
2022/05/01 09:04:01;;;;;;;6.80;4.18;;;;;;;19.76;43.11;101195.34;5115769;28;20038;-75
2022/05/01 09:06:27;;;;;;;5.18;3.85;;;;;;;19.72;41.30;101199.97;5104302;28;20052;-75
2022/05/01 09:08:52;;;;;;;9.18;4.00;;;;;;;19.70;40.66;101199.50;5102077;28;20023;-75
2022/05/01 09:14:05;;;;;;;7.35;3.33;;;;;;;19.64;39.78;101198.03;5110089;28;20042;-75
2022/05/01 09:16:31;;;;;;;5.68;3.50;;;;;;;19.82;40.26;101196.78;5082787;28;20452;-75
2022/05/01 09:18:56;;;;;;;7.40;3.80;;;;;;;19.80;40.26;101196.28;5086729;28;20020;-75
2022/05/01 09:21:22;;;;;;;5.45;3.65;;;;;;;19.93;39.55;101193.59;5028772;28;20143;-75
2022/05/01 09:23:48;;;;;;;4.20;3.33;;;;;;;20.04;39.27;101194.84;5078453;28;20031;-73
2022/05/01 09:26:17;;;;;;;4.93;3.50;;;;;;;20.06;39.71;101195.31;5099543;28;20020;-73
2022/05/01 09:28:51;;;;;;;5.25;3.47;;;;;;;20.04;39.94;101189.19;5085849;28;20035;-74
2022/05/01 09:31:17;;;;;;;7.32;3.60;;;;;;;20.02;39.98;101197.16;5082856;28;20032;-73
2022/05/01 09:33:42;;;;;;;6.05;2.90;;;;;;;20.16;39.52;101191.25;5095190;28;20031;-73
2022/05/01 09:36:09;;;;;;;4.63;2.92;;;;;;;20.24;39.01;101198.84;5100533;28;20032;-76
2022/05/01 09:38:35;;;;;;;7.90;3.40;;;;;;;20.38;38.75;101193.75;5080260;28;20050;-71
2022/05/01 09:41:02;;;;;;;4.07;3.05;;;;;;;20.44;38.58;101192.38;5118755;28;20031;-71
2022/05/01 09:43:47;;;;;;;6.43;3.22;;;;;;;20.43;38.69;101190.72;5078480;28;20032;-71
2022/05/01 09:46:19;;;;;;;5.72;3.30;;;;;;;20.41;37.69;101186.59;5095940;28;20028;-71
2022/05/01 09:49:10;;;;;;;4.50;3.40;;;;;;;20.43;37.45;101184.25;5101213;28;20062;-71
2022/05/01 09:51:46;;;;;;;4.43;3.20;;;;;;;20.53;37.44;101186.69;5106124;28;20083;-71
2022/05/01 09:54:17;;;;;;;5.55;2.95;;;;;;;20.60;37.92;101186.13;5077579;28;20051;-71
2022/05/01 09:56:50;;;;;;;4.75;3.20;;;;;;;20.62;37.38;101172.50;5061090;28;20063;-71
2022/05/01 09:59:16;;;;;;;6.80;3.40;;;;;;;20.72;37.43;101175.72;5071975;28;20051;-71
2022/05/01 10:02:01;;;;;;;4.75;2.83;;;;;;;20.78;37.43;101170.66;5065185;28;20028;-71
2022/05/01 10:04:26;;;;;;;8.45;2.90;;;;;;;20.93;36.97;101172.03;5099631;28;20042;-71
2022/05/01 10:06:55;;;;;;;6.47;2.63;;;;;;;21.11;36.68;101179.13;5067722;28;20028;-71
2022/05/01 10:09:22;;;;;;;5.88;3.58;;;;;;;21.13;36.06;101168.31;5075458;28;20519;-71
2022/05/01 10:11:48;;;;;;;5.78;3.00;;;;;;;21.18;36.15;101164.44;5095821;28;20024;-72
2022/05/01 10:14:14;;;;;;;4.13;2.90;;;;;;;21.33;36.47;101160.91;5074286;28;20023;-72
2022/05/01 10:16:41;;;;;;;5.78;2.88;;;;;;;21.41;36.07;101167.66;5084814;28;20458;-71
2022/05/01 10:19:07;;;;;;;6.95;3.47;;;;;;;21.41;35.68;101159.19;5075049;28;20016;-72
2022/05/01 10:21:34;;;;;;;5.35;2.70;;;;;;;21.49;35.80;101158.25;5065028;28;20028;-71
2022/05/01 10:24:00;;;;;;;5.78;3.20;;;;;;;21.50;35.27;101154.25;5081646;28;20038;-71
2022/05/01 10:26:28;;;;;;;7.38;3.08;;;;;;;21.57;35.22;101153.69;5092190;28;20079;-72
2022/05/01 10:28:53;;;;;;;5.85;2.90;;;;;;;21.63;35.23;101144.59;5065263;28;20036;-71
2022/05/01 10:34:53;;;;;;;6.53;3.05;;;;;;;21.82;35.25;101138.34;5086193;28;20035;-72
2022/05/01 10:37:21;;;;;;;4.63;3.10;;;;;;;21.81;35.60;101142.34;5099697;28;20454;-72
2022/05/01 10:39:46;;;;;;;5.82;3.10;;;;;;;21.84;34.42;101132.31;5081303;28;20035;-72
2022/05/01 10:42:12;;;;;;;6.03;3.13;;;;;;;21.88;34.01;101130.44;5064651;28;20024;-72
2022/05/01 10:44:40;;;;;;;4.00;3.00;;;;;;;21.86;34.84;101132.78;5078669;28;20040;-72
2022/05/01 10:47:06;;;;;;;7.95;2.75;;;;;;;21.83;35.72;101127.84;5088610;28;20051;-72
2022/05/01 10:49:34;;;;;;;4.20;2.72;;;;;;;21.96;34.97;101131.50;5077614;28;20043;-72
2022/05/01 10:52:19;;;;;;;3.50;2.20;;;;;;;22.10;35.25;101126.28;5071621;28;20048;-72
2022/05/01 10:55:04;;;;;;;5.78;2.80;;;;;;;22.08;34.89;101115.31;5054016;28;20032;-73
2022/05/01 10:57:30;;;;;;;5.07;2.80;;;;;;;22.12;34.64;101118.25;5073006;28;20044;-71
2022/05/01 11:00:11;;;;;;;4.82;2.85;;;;;;;21.98;34.24;101115.81;5060940;28;20025;-71
2022/05/01 11:02:38;;;;;;;4.70;2.90;;;;;;;21.92;34.24;101120.03;5046053;28;20032;-73
2022/05/01 11:05:05;;;;;;;5.40;2.70;;;;;;;22.07;33.21;101113.66;5072464;28;20032;-72
2022/05/01 11:07:31;;;;;;;5.00;2.63;;;;;;;21.70;33.39;101110.06;5060776;28;20032;-72
2022/05/01 11:09:58;;;;;;;5.45;2.90;;;;;;;21.92;33.82;101108.75;5055415;28;20024;-71
2022/05/01 11:12:24;;;;;;;3.72;2.60;;;;;;;22.06;33.72;101102.69;5044046;28;20024;-72
2022/05/01 11:14:52;;;;;;;5.53;3.15;;;;;;;21.80;34.09;101091.81;5074750;28;20042;-72
2022/05/01 11:17:39;;;;;;;5.35;2.92;;;;;;;21.90;34.70;101098.97;5098843;28;20074;-72
2022/05/01 11:20:29;;;;;;;4.25;3.13;;;;;;;21.74;34.80;101091.22;5080595;28;20028;-72
2022/05/01 11:22:55;;;;;;;4.90;2.83;;;;;;;21.70;33.96;101095.94;5083727;28;20099;-72
2022/05/01 11:25:40;;;;;;;3.50;2.58;;;;;;;21.82;34.21;101086.63;5069620;28;20042;-71
2022/05/01 11:28:06;;;;;;;5.88;2.50;;;;;;;21.92;33.68;101082.47;5063770;28;20028;-72
2022/05/01 11:30:33;;;;;;;4.97;2.55;;;;;;;21.91;33.22;101078.81;5043681;28;20028;-72
2022/05/01 11:33:02;;;;;;;3.85;2.65;;;;;;;21.73;33.74;101071.78;5071139;28;20084;-72
2022/05/01 11:35:54;;;;;;;7.30;2.85;;;;;;;21.78;32.44;101068.72;5069654;28;20036;-72
2022/05/01 11:38:21;;;;;;;5.10;2.70;;;;;;;21.81;33.60;101068.00;5060447;28;20028;-73
2022/05/01 11:40:54;;;;;;;5.40;2.75;;;;;;;21.88;33.39;101064.59;5038025;28;20051;-73